createdAt,value
2022-09-16T00:01:53.016Z,10.20
2022-09-16T00:07:16.664Z,13.63
2022-09-16T00:12:41.076Z,9.05
2022-09-16T00:18:06.120Z,6.40
2022-09-16T00:23:29.744Z,8.50
2022-09-16T00:28:53.318Z,9.32
2022-09-16T00:34:18.306Z,9.45
2022-09-16T00:39:41.890Z,8.95
2022-09-16T00:45:09.781Z,10.65
2022-09-16T00:50:38.931Z,10.98
2022-09-16T00:56:07.538Z,11.38
2022-09-16T01:01:31.803Z,10.40
2022-09-16T01:06:57.595Z,11.38
2022-09-16T01:12:21.227Z,14.23
2022-09-16T01:18:12.609Z,18.15
2022-09-16T01:24:20.312Z,12.80
2022-09-16T01:30:13.516Z,12.30
2022-09-16T01:35:52.990Z,9.45
2022-09-16T01:41:28.105Z,9.50
2022-09-16T01:47:00.363Z,11.95
2022-09-16T01:52:36.022Z,14.45
2022-09-16T01:58:03.649Z,10.80
2022-09-16T02:03:31.399Z,13.15
2022-09-16T02:08:59.837Z,15.20
2022-09-16T02:14:26.006Z,16.88
2022-09-16T02:19:53.256Z,17.15
2022-09-16T02:25:20.394Z,14.55
2022-09-16T02:30:47.193Z,19.48
2022-09-16T02:36:12.817Z,17.77
2022-09-16T02:41:39.833Z,14.55
2022-09-16T02:47:13.811Z,15.32
2022-09-16T02:52:42.317Z,14.65
2022-09-16T02:58:07.717Z,22.48
2022-09-16T03:03:31.402Z,25.55
2022-09-16T03:08:57.542Z,22.45
2022-09-16T03:14:53.101Z,27.48
2022-09-16T03:20:22.176Z,20.55
2022-09-16T03:25:58.234Z,20.05
2022-09-16T03:31:29.113Z,21.80
2022-09-16T03:42:18.655Z,25.90
2022-09-16T03:47:44.252Z,21.77
2022-09-16T03:53:07.911Z,25.73
2022-09-16T03:58:31.594Z,21.27
2022-09-16T04:03:57.527Z,18.95
2022-09-16T04:09:21.191Z,19.60
2022-09-16T04:14:44.742Z,21.75
2022-09-16T04:20:10.565Z,25.10
2022-09-16T04:25:34.204Z,25.40
2022-09-16T04:31:01.095Z,27.67
2022-09-16T04:36:26.111Z,26.20
2022-09-16T04:41:49.673Z,28.13
2022-09-16T04:47:13.301Z,23.45
2022-09-16T04:52:38.458Z,28.25
2022-09-16T04:58:02.238Z,30.35
2022-09-16T05:03:25.817Z,24.80
2022-09-16T05:08:51.737Z,24.83
2022-09-16T05:14:17.027Z,29.40
2022-09-16T05:19:40.672Z,24.30
2022-09-16T05:25:06.245Z,25.98
2022-09-16T05:30:29.936Z,21.27
2022-09-16T05:35:53.728Z,21.30
2022-09-16T05:41:18.745Z,26.55
2022-09-16T05:46:43.535Z,20.77
2022-09-16T05:52:07.189Z,23.95
2022-09-16T05:57:32.296Z,17.90
2022-09-16T06:02:56.422Z,21.50
2022-09-16T06:08:20.208Z,21.70
2022-09-16T06:13:47.800Z,19.63
2022-09-16T06:19:13.691Z,20.35
2022-09-16T06:24:37.319Z,22.88
2022-09-16T06:30:02.254Z,18.73
2022-09-16T06:35:25.855Z,19.10
2022-09-16T06:40:49.627Z,20.45
2022-09-16T06:46:17.093Z,20.92
2022-09-16T06:51:40.763Z,20.75
2022-09-16T06:57:06.595Z,18.52
2022-09-16T07:02:35.098Z,13.38
2022-09-16T07:07:59.256Z,12.25
2022-09-16T07:13:22.880Z,18.00
2022-09-16T07:18:48.394Z,16.83
2022-09-16T07:24:14.030Z,15.88
2022-09-16T07:29:37.654Z,10.73
2022-09-16T07:35:02.547Z,10.68
2022-09-16T07:40:29.675Z,9.57
2022-09-16T07:45:57.755Z,12.98
2022-09-16T07:51:24.523Z,12.45
2022-09-16T07:56:48.283Z,15.70
2022-09-16T08:02:14.054Z,12.73
2022-09-16T08:07:39.511Z,11.25
2022-09-16T08:13:03.638Z,14.77
2022-09-16T08:18:27.677Z,8.13
2022-09-16T08:23:53.911Z,13.75
2022-09-16T08:29:28.569Z,11.43
2022-09-16T08:34:53.283Z,9.68
2022-09-16T08:45:56.437Z,6.95
2022-09-16T08:51:21.695Z,10.68
2022-09-16T08:56:49.771Z,10.25
2022-09-16T09:02:29.394Z,11.20
2022-09-16T09:08:17.365Z,13.70
2022-09-16T09:13:58.887Z,10.88
2022-09-16T09:19:33.378Z,10.18
2022-09-16T09:25:10.058Z,9.55
2022-09-16T09:30:37.867Z,11.80
2022-09-16T09:36:37.633Z,13.48
2022-09-16T09:42:11.435Z,8.23
2022-09-16T09:47:41.023Z,12.60
2022-09-16T09:53:19.068Z,10.60
2022-09-16T09:58:49.255Z,8.20
2022-09-16T10:04:16.457Z,7.78
2022-09-16T10:09:50.549Z,12.45
2022-09-16T10:15:25.947Z,4.80
2022-09-16T10:21:00.276Z,5.35
2022-09-16T10:26:25.501Z,3.35
2022-09-16T10:31:49.764Z,7.38
2022-09-16T10:37:20.130Z,3.63
2022-09-16T10:48:15.397Z,5.22
2022-09-16T10:53:44.376Z,3.78
2022-09-16T10:59:12.241Z,4.70
2022-09-16T11:04:57.016Z,4.40
2022-09-16T11:10:27.311Z,8.93
2022-09-16T11:21:42.554Z,3.67
2022-09-16T11:27:13.866Z,4.50
2022-09-16T11:32:55.872Z,12.65
2022-09-16T11:38:27.766Z,5.05
2022-09-16T11:44:19.392Z,2.38
2022-09-16T11:49:54.158Z,4.82
2022-09-16T11:55:30.505Z,5.35
2022-09-16T12:00:59.321Z,9.02
2022-09-16T12:06:25.763Z,3.28
2022-09-16T12:11:53.085Z,4.60
2022-09-16T12:17:22.057Z,6.03
2022-09-16T12:22:50.035Z,3.72
2022-09-16T12:28:18.130Z,1.95
2022-09-16T12:33:48.525Z,2.90
2022-09-16T12:39:13.080Z,12.00
2022-09-16T12:45:22.450Z,3.92
2022-09-16T12:51:03.976Z,3.90
2022-09-16T12:56:44.548Z,4.18
2022-09-16T13:02:16.647Z,2.05
2022-09-16T13:07:42.399Z,2.67
2022-09-16T13:13:07.359Z,1.95
2022-09-16T13:18:52.307Z,6.35
2022-09-16T13:24:31.244Z,1.70
2022-09-16T13:30:26.858Z,5.32
2022-09-16T13:36:02.766Z,8.98
2022-09-16T13:41:34.091Z,9.60
2022-09-16T13:47:16.364Z,1.70
2022-09-16T13:52:42.633Z,2.20
2022-09-16T13:58:17.337Z,4.15
2022-09-16T14:03:53.439Z,2.72
2022-09-16T14:09:28.474Z,4.50
2022-09-16T14:14:53.695Z,2.22
2022-09-16T14:20:19.798Z,5.18
2022-09-16T14:25:43.503Z,2.83
2022-09-16T14:31:13.788Z,3.92
2022-09-16T14:36:40.370Z,6.07
2022-09-16T14:42:07.728Z,3.38
2022-09-16T14:47:52.580Z,4.07
2022-09-16T14:53:34.771Z,10.05
2022-09-16T14:58:59.629Z,10.45
2022-09-16T15:04:29.569Z,11.10
2022-09-16T15:09:57.547Z,2.67
2022-09-16T15:15:24.408Z,2.58
2022-09-16T15:20:54.244Z,7.15
2022-09-16T15:26:20.130Z,3.83
2022-09-16T15:31:44.884Z,4.95
2022-09-16T15:37:32.108Z,7.70
2022-09-16T15:43:05.095Z,5.90
2022-09-16T15:48:33.351Z,6.35
2022-09-16T15:54:04.011Z,2.90
2022-09-16T15:59:33.941Z,4.65
2022-09-16T16:05:07.554Z,4.22
2022-09-16T16:10:35.299Z,5.85
2022-09-16T16:15:59.102Z,3.67
2022-09-16T16:21:22.946Z,4.28
2022-09-16T16:26:47.959Z,6.43
2022-09-16T16:32:13.672Z,3.65
2022-09-16T16:37:46.397Z,3.92
2022-09-16T16:43:12.019Z,3.70
2022-09-16T16:48:35.787Z,5.18
2022-09-16T16:53:59.431Z,3.45
2022-09-16T16:59:24.426Z,2.67
2022-09-16T17:04:48.068Z,2.00
2022-09-16T17:10:11.773Z,3.67
2022-09-16T17:15:36.831Z,5.07
2022-09-16T17:21:03.821Z,3.75
2022-09-16T17:26:28.365Z,5.68
2022-09-16T17:31:53.426Z,5.10
2022-09-16T17:37:19.860Z,4.45
2022-09-16T17:42:57.072Z,5.28
2022-09-16T17:48:23.564Z,7.30
2022-09-16T17:53:47.528Z,4.63
2022-09-16T17:59:12.088Z,5.57
2022-09-16T18:04:37.065Z,4.43
2022-09-16T18:10:00.678Z,4.30
2022-09-16T18:15:24.293Z,3.78
2022-09-16T18:20:54.418Z,3.15
2022-09-16T18:26:19.158Z,4.67
2022-09-16T18:31:44.627Z,9.43
2022-09-16T18:37:09.644Z,4.63
2022-09-16T18:42:33.272Z,5.00
2022-09-16T18:47:56.957Z,6.15
2022-09-16T18:53:21.973Z,5.32
2022-09-16T18:59:03.589Z,4.35
2022-09-16T19:04:31.412Z,6.78
2022-09-16T19:09:56.739Z,4.45
2022-09-16T19:15:21.103Z,3.63
2022-09-16T19:20:46.457Z,4.28
2022-09-16T19:26:11.894Z,9.05
2022-09-16T19:31:37.355Z,4.75
2022-09-16T19:37:00.975Z,8.45
2022-09-16T19:42:25.937Z,6.70
2022-09-16T19:47:49.843Z,4.90
2022-09-16T19:53:13.455Z,6.55
2022-09-16T19:58:40.876Z,3.60
2022-09-16T20:04:08.151Z,6.30
2022-09-16T20:09:31.809Z,6.63
2022-09-16T20:14:56.827Z,4.03
2022-09-16T20:20:21.406Z,4.65
2022-09-16T20:25:45.100Z,5.40
2022-09-16T20:31:11.421Z,3.78
2022-09-16T20:36:38.423Z,5.20
2022-09-16T20:42:02.036Z,7.20
2022-09-16T20:47:30.433Z,2.80
2022-09-16T20:52:53.994Z,4.60
2022-09-16T20:58:17.669Z,7.10
2022-09-16T21:03:43.986Z,14.20
2022-09-16T21:09:10.229Z,10.68
2022-09-16T21:14:35.166Z,12.10
2022-09-16T21:20:00.138Z,10.93
2022-09-16T21:25:24.765Z,7.72
2022-09-16T21:30:48.443Z,8.48
2022-09-16T21:36:14.954Z,9.50
2022-09-16T21:41:38.639Z,5.97
2022-09-16T21:47:10.560Z,6.13
2022-09-16T21:52:35.561Z,9.40
2022-09-16T21:57:59.198Z,6.93
2022-09-16T22:03:22.787Z,7.57
2022-09-16T22:08:49.069Z,7.38
2022-09-16T22:14:12.943Z,9.48
2022-09-16T22:19:36.693Z,5.10
2022-09-16T22:25:01.608Z,5.70
2022-09-16T22:30:25.219Z,5.38
2022-09-16T22:35:48.785Z,6.90
2022-09-16T22:41:13.823Z,7.80
2022-09-16T22:46:41.545Z,6.68
2022-09-16T22:52:05.269Z,5.65
2022-09-16T22:57:30.442Z,7.18
2022-09-16T23:02:54.614Z,9.45
2022-09-16T23:08:18.224Z,9.95
2022-09-16T23:13:45.278Z,7.88
2022-09-16T23:19:11.668Z,12.73
2022-09-16T23:24:35.247Z,10.02
2022-09-16T23:30:00.212Z,7.93
2022-09-16T23:35:23.823Z,11.82
2022-09-16T23:40:47.855Z,13.25
2022-09-16T23:46:15.272Z,9.05
2022-09-16T23:51:38.946Z,7.53
2022-09-16T23:57:02.666Z,8.85
